createdAt,value
2022-10-30T00:00:38.015Z,82.29
2022-10-30T00:03:40.420Z,82.99
2022-10-30T00:06:42.492Z,82.29
2022-10-30T00:09:44.541Z,82.77
2022-10-30T00:12:46.615Z,83.03
2022-10-30T00:15:50.431Z,82.95
2022-10-30T00:18:52.501Z,82.71
2022-10-30T00:24:56.868Z,83.62
2022-10-30T00:27:58.951Z,83.86
2022-10-30T00:31:02.673Z,83.58
2022-10-30T00:34:04.987Z,84.39
2022-10-30T00:37:07.034Z,84.13
2022-10-30T00:40:15.361Z,84.82
2022-10-30T00:43:41.271Z,84.43
2022-10-30T00:46:44.999Z,84.62
2022-10-30T00:50:08.074Z,85.30
2022-10-30T00:53:22.004Z,84.92
2022-10-30T00:56:24.658Z,85.42
2022-10-30T00:59:30.716Z,84.68
2022-10-30T01:02:33.318Z,85.52
2022-10-30T01:05:36.399Z,85.46
2022-10-30T01:08:39.291Z,86.02
2022-10-30T01:11:41.600Z,85.92
2022-10-30T01:14:53.518Z,86.85
2022-10-30T01:18:01.856Z,86.00
2022-10-30T01:21:18.925Z,86.35
2022-10-30T01:24:26.718Z,86.69
2022-10-30T01:27:40.864Z,87.17
2022-10-30T01:30:58.307Z,87.04
2022-10-30T01:34:22.662Z,87.24
2022-10-30T01:37:52.479Z,86.96
2022-10-30T01:40:54.941Z,86.13
2022-10-30T01:44:03.063Z,85.75
2022-10-30T01:47:43.390Z,86.49
2022-10-30T01:51:09.189Z,85.83
2022-10-30T01:54:32.560Z,86.04
2022-10-30T01:57:57.705Z,86.06
2022-10-30T02:01:01.420Z,87.18
2022-10-30T02:04:05.060Z,86.95
2022-10-30T02:07:07.621Z,86.52
2022-10-30T02:10:16.382Z,87.24
2022-10-30T02:13:19.072Z,87.59
2022-10-30T02:16:22.144Z,86.95
2022-10-30T02:19:24.469Z,87.41
2022-10-30T02:22:26.754Z,87.00
2022-10-30T02:25:29.824Z,87.42
2022-10-30T02:28:32.026Z,86.42
2022-10-30T02:31:33.996Z,86.71
2022-10-30T02:34:36.968Z,86.24
2022-10-30T02:37:41.160Z,87.00
2022-10-30T02:40:44.848Z,86.48
2022-10-30T02:43:47.052Z,86.45
2022-10-30T02:46:49.171Z,87.33
2022-10-30T02:49:51.863Z,86.54
2022-10-30T02:52:55.408Z,86.79
2022-10-30T02:56:04.136Z,87.43
2022-10-30T02:59:06.683Z,88.29
2022-10-30T03:02:08.724Z,87.64
2022-10-30T03:05:11.226Z,87.98
2022-10-30T03:08:15.160Z,87.83
2022-10-30T03:11:18.869Z,87.38
2022-10-30T03:14:21.893Z,87.81
2022-10-30T03:17:24.113Z,89.31
2022-10-30T03:20:26.157Z,90.46
2022-10-30T03:23:29.911Z,89.68
2022-10-30T03:26:31.988Z,89.27
2022-10-30T03:29:40.969Z,90.13
2022-10-30T03:32:44.088Z,90.18
2022-10-30T03:35:46.313Z,88.73
2022-10-30T03:38:48.544Z,88.80
2022-10-30T03:41:54.064Z,89.11
2022-10-30T03:44:56.185Z,89.66
2022-10-30T03:48:01.746Z,89.59
2022-10-30T03:51:04.358Z,89.90
2022-10-30T03:54:06.799Z,89.76
2022-10-30T03:57:09.032Z,89.93
2022-10-30T04:00:35.971Z,91.07
2022-10-30T04:03:38.956Z,90.04
2022-10-30T04:06:43.767Z,90.19
2022-10-30T04:09:56.538Z,88.79
2022-10-30T04:13:06.759Z,89.86
2022-10-30T04:16:14.462Z,89.71
2022-10-30T04:19:19.714Z,89.28
2022-10-30T04:22:22.136Z,89.24
2022-10-30T04:25:24.873Z,90.12
2022-10-30T04:28:29.288Z,89.89
2022-10-30T04:31:32.147Z,90.06
2022-10-30T04:34:34.422Z,90.57
2022-10-30T04:37:37.575Z,90.88
2022-10-30T04:40:41.631Z,89.98
2022-10-30T04:43:44.323Z,90.71
2022-10-30T04:46:46.869Z,91.86
2022-10-30T04:49:50.191Z,95.86
2022-10-30T04:53:05.184Z,98.73
2022-10-30T04:56:08.866Z,100.00
2022-10-30T04:59:15.021Z,100.00
2022-10-30T05:02:22.349Z,100.00
2022-10-30T05:05:24.598Z,100.00
2022-10-30T05:08:28.045Z,100.00
2022-10-30T05:11:31.186Z,100.00
2022-10-30T05:14:33.827Z,100.00
2022-10-30T05:17:36.832Z,100.00
2022-10-30T05:20:39.272Z,100.00
2022-10-30T05:23:41.815Z,100.00
2022-10-30T05:26:45.628Z,100.00
2022-10-30T05:29:47.703Z,100.00
2022-10-30T05:32:51.365Z,100.00
2022-10-30T05:35:56.174Z,100.00
2022-10-30T05:39:02.013Z,100.00
2022-10-30T05:42:20.187Z,100.00
2022-10-30T05:45:23.043Z,100.00
2022-10-30T05:48:25.896Z,100.00
2022-10-30T05:51:36.488Z,100.00
2022-10-30T05:54:43.229Z,100.00
2022-10-30T05:57:56.501Z,100.00
2022-10-30T06:01:30.283Z,100.00
2022-10-30T06:04:39.798Z,100.00
2022-10-30T06:07:46.361Z,100.00
2022-10-30T06:10:48.834Z,100.00
2022-10-30T06:14:00.875Z,100.00
2022-10-30T06:17:28.674Z,100.00
2022-10-30T06:20:56.609Z,100.00
2022-10-30T06:24:01.515Z,100.00
2022-10-30T06:27:18.292Z,100.00
2022-10-30T06:30:21.808Z,100.00
2022-10-30T06:33:26.884Z,99.71
2022-10-30T06:36:30.393Z,98.93
2022-10-30T06:39:33.704Z,98.93
2022-10-30T06:42:54.791Z,98.51
2022-10-30T06:49:16.678Z,95.67
2022-10-30T06:52:23.294Z,95.30
2022-10-30T06:55:42.414Z,94.05
2022-10-30T06:59:19.689Z,93.71
2022-10-30T07:02:28.963Z,93.47
2022-10-30T07:05:34.564Z,92.44
2022-10-30T07:08:53.728Z,92.65
2022-10-30T07:11:57.337Z,92.38
2022-10-30T07:15:09.798Z,91.89
2022-10-30T07:18:44.651Z,91.16
2022-10-30T07:21:47.131Z,90.80
2022-10-30T07:24:52.894Z,89.90
2022-10-30T07:28:16.870Z,89.63
2022-10-30T07:31:41.855Z,88.07
2022-10-30T07:34:45.869Z,88.25
2022-10-30T07:38:07.171Z,87.61
2022-10-30T07:41:20.699Z,86.74
2022-10-30T07:44:30.159Z,86.58
2022-10-30T07:47:54.474Z,86.58
2022-10-30T07:51:10.213Z,86.76
2022-10-30T07:54:13.323Z,86.63
2022-10-30T07:57:15.646Z,86.16
2022-10-30T08:00:40.395Z,86.48
2022-10-30T08:04:14.155Z,85.93
2022-10-30T08:07:21.043Z,85.22
2022-10-30T08:10:23.912Z,83.96
2022-10-30T08:15:01.994Z,83.33
2022-10-30T08:17:15.646Z,82.68
2022-10-30T08:20:23.582Z,82.11
2022-10-30T08:26:57.548Z,81.58
2022-10-30T08:30:02.958Z,81.36
2022-10-30T08:33:13.611Z,81.04
2022-10-30T08:36:32.861Z,80.52
2022-10-30T08:39:35.095Z,80.39
2022-10-30T08:43:26.769Z,80.14
2022-10-30T08:46:32.407Z,79.97
2022-10-30T08:49:50.956Z,79.73
2022-10-30T08:52:57.054Z,80.14
2022-10-30T08:55:59.643Z,78.44
2022-10-30T08:59:12.973Z,76.32
2022-10-30T09:02:19.805Z,74.47
2022-10-30T09:06:17.128Z,73.01
2022-10-30T09:09:49.758Z,72.82
2022-10-30T09:13:03.418Z,72.32
2022-10-30T09:16:07.285Z,71.00
2022-10-30T09:19:17.633Z,70.93
2022-10-30T09:22:22.087Z,73.05
2022-10-30T09:25:24.948Z,75.91
2022-10-30T09:28:39.690Z,79.61
2022-10-30T09:32:10.813Z,82.16
2022-10-30T09:35:24.165Z,77.85
2022-10-30T09:38:26.262Z,76.01
2022-10-30T09:41:53.994Z,72.37
2022-10-30T09:45:30.084Z,71.82
2022-10-30T09:48:45.589Z,66.23
2022-10-30T09:51:54.618Z,65.18
2022-10-30T09:55:34.115Z,64.25
2022-10-30T09:59:08.839Z,72.04
2022-10-30T10:02:17.611Z,72.91
2022-10-30T10:05:51.907Z,72.42
2022-10-30T10:09:45.317Z,73.37
2022-10-30T10:13:34.169Z,73.12
2022-10-30T10:16:41.025Z,73.53
2022-10-30T10:20:08.991Z,73.87
2022-10-30T10:23:59.326Z,73.24
2022-10-30T10:27:27.115Z,73.60
2022-10-30T10:30:52.780Z,73.32
2022-10-30T10:34:00.474Z,72.13
2022-10-30T10:37:28.895Z,69.96
2022-10-30T10:40:42.885Z,67.80
2022-10-30T10:43:47.862Z,66.23
2022-10-30T10:47:10.565Z,65.02
2022-10-30T10:50:47.628Z,64.59
2022-10-30T10:54:28.805Z,64.59
2022-10-30T10:57:35.019Z,64.51
2022-10-30T11:00:38.283Z,64.41
2022-10-30T11:04:31.153Z,64.52
2022-10-30T11:07:48.595Z,64.87
2022-10-30T11:10:59.329Z,65.87
2022-10-30T11:14:03.679Z,66.12
2022-10-30T11:17:40.922Z,67.44
2022-10-30T11:20:48.536Z,67.17
2022-10-30T11:23:51.470Z,68.12
2022-10-30T11:27:48.092Z,68.41
2022-10-30T11:30:52.974Z,67.94
2022-10-30T11:35:15.562Z,69.29
2022-10-30T11:38:27.178Z,69.38
2022-10-30T11:41:30.170Z,69.20
2022-10-30T11:44:47.091Z,68.88
2022-10-30T11:47:49.147Z,70.30
2022-10-30T11:50:53.270Z,69.62
2022-10-30T11:53:55.449Z,70.00
2022-10-30T11:56:59.205Z,70.09
2022-10-30T12:00:05.714Z,70.03
2022-10-30T12:03:36.316Z,70.22
2022-10-30T12:06:46.951Z,71.35
2022-10-30T12:09:49.702Z,70.33
2022-10-30T12:12:52.268Z,71.44
2022-10-30T12:16:06.709Z,71.32
2022-10-30T12:19:18.913Z,71.72
2022-10-30T12:22:32.583Z,71.89
2022-10-30T12:25:34.638Z,71.09
2022-10-30T12:28:37.468Z,71.76
2022-10-30T12:31:46.397Z,72.09
2022-10-30T12:35:03.073Z,71.92
2022-10-30T12:38:15.611Z,72.76
2022-10-30T12:41:31.922Z,72.68
2022-10-30T12:44:48.622Z,72.03
2022-10-30T12:47:53.527Z,72.61
2022-10-30T12:51:30.298Z,73.17
2022-10-30T12:55:10.622Z,73.02
2022-10-30T12:58:46.407Z,73.21
2022-10-30T13:01:59.853Z,74.83
2022-10-30T13:05:30.204Z,75.46
2022-10-30T13:08:44.975Z,74.57
2022-10-30T13:12:10.953Z,74.41
2022-10-30T13:15:33.860Z,75.09
2022-10-30T13:18:36.381Z,74.92
2022-10-30T13:22:06.542Z,73.97
2022-10-30T13:25:38.662Z,72.62
2022-10-30T13:28:49.741Z,72.05
2022-10-30T13:32:15.370Z,72.25
2022-10-30T13:35:28.911Z,72.72
2022-10-30T13:38:51.377Z,73.14
2022-10-30T13:42:18.411Z,72.42
2022-10-30T13:46:12.176Z,71.06
2022-10-30T13:49:31.338Z,69.01
2022-10-30T13:52:38.761Z,67.43
2022-10-30T13:55:42.273Z,65.93
2022-10-30T13:58:44.597Z,65.22
2022-10-30T14:02:04.479Z,64.29
2022-10-30T14:05:35.273Z,63.77
2022-10-30T14:08:55.349Z,64.56
2022-10-30T14:12:21.140Z,63.73
2022-10-30T14:15:30.107Z,64.41
2022-10-30T14:18:44.756Z,64.61
2022-10-30T14:21:57.499Z,63.29
2022-10-30T14:25:02.486Z,61.74
2022-10-30T14:28:05.667Z,60.51
2022-10-30T14:31:42.121Z,59.71
2022-10-30T14:34:54.440Z,58.52
2022-10-30T14:38:37.430Z,58.85
2022-10-30T14:41:55.749Z,60.17
2022-10-30T14:45:09.781Z,61.46
2022-10-30T14:48:48.482Z,61.23
2022-10-30T14:52:15.020Z,62.25
2022-10-30T14:55:28.642Z,63.26
2022-10-30T14:58:37.670Z,63.75
2022-10-30T15:01:55.097Z,65.27
2022-10-30T15:05:36.691Z,64.93
2022-10-30T15:09:08.235Z,65.45
2022-10-30T15:12:20.269Z,65.62
2022-10-30T15:15:25.657Z,65.38
2022-10-30T15:18:30.831Z,65.89
2022-10-30T15:21:43.499Z,65.54
2022-10-30T15:24:46.805Z,65.79
2022-10-30T15:27:58.537Z,65.85
2022-10-30T15:31:29.830Z,66.24
2022-10-30T15:34:35.953Z,66.11
2022-10-30T15:38:03.460Z,66.40
2022-10-30T15:41:41.482Z,66.81
2022-10-30T15:45:05.915Z,67.47
2022-10-30T15:48:19.790Z,68.49
2022-10-30T15:51:24.577Z,68.63
2022-10-30T15:54:28.491Z,68.97
2022-10-30T15:58:02.338Z,69.05
2022-10-30T16:01:05.271Z,68.82
2022-10-30T16:04:18.632Z,68.79
2022-10-30T16:07:23.950Z,69.08
2022-10-30T16:10:36.389Z,69.52
2022-10-30T16:13:46.459Z,68.86
2022-10-30T16:16:52.160Z,69.96
2022-10-30T16:20:04.183Z,69.72
2022-10-30T16:23:07.934Z,70.14
2022-10-30T16:26:26.418Z,70.02
2022-10-30T16:29:34.670Z,70.84
2022-10-30T16:32:36.950Z,71.50
2022-10-30T16:35:52.997Z,72.13
2022-10-30T16:39:00.116Z,73.22
2022-10-30T16:42:02.593Z,73.82
2022-10-30T16:45:11.787Z,74.17
2022-10-30T16:48:30.053Z,75.19
2022-10-30T16:51:33.454Z,75.40
2022-10-30T16:54:48.419Z,76.84
2022-10-30T16:57:58.874Z,77.25
2022-10-30T17:01:40.215Z,77.72
2022-10-30T17:04:55.516Z,77.50
2022-10-30T17:08:01.892Z,77.84
2022-10-30T17:11:36.770Z,79.28
2022-10-30T17:14:46.882Z,77.58
2022-10-30T17:18:11.308Z,78.58
2022-10-30T17:21:18.473Z,77.67
2022-10-30T17:24:31.012Z,78.50
2022-10-30T17:27:52.438Z,78.52
2022-10-30T17:30:56.984Z,80.13
2022-10-30T17:35:03.287Z,83.09
2022-10-30T17:38:06.404Z,85.78
2022-10-30T17:41:14.854Z,88.32
2022-10-30T17:44:25.262Z,91.77
2022-10-30T17:47:31.323Z,93.86
2022-10-30T17:50:35.813Z,94.57
2022-10-30T17:53:39.892Z,96.61
2022-10-30T18:00:43.971Z,96.89
2022-10-30T18:03:46.110Z,99.48
2022-10-30T18:06:56.094Z,97.55
2022-10-30T18:09:58.323Z,95.63
2022-10-30T18:13:00.869Z,95.15
2022-10-30T18:16:07.664Z,94.92
2022-10-30T18:19:12.458Z,95.62
2022-10-30T18:22:32.704Z,96.50
2022-10-30T18:25:36.559Z,96.75
2022-10-30T18:28:38.623Z,96.89
2022-10-30T18:31:41.956Z,96.39
2022-10-30T18:34:43.929Z,96.13
2022-10-30T18:37:45.952Z,95.81
2022-10-30T18:40:48.491Z,96.20
2022-10-30T18:43:51.708Z,95.21
2022-10-30T18:46:56.452Z,94.37
2022-10-30T18:50:27.532Z,94.48
2022-10-30T18:53:34.989Z,93.78
2022-10-30T18:56:38.059Z,93.78
2022-10-30T18:59:40.564Z,93.78
2022-10-30T19:02:43.070Z,94.47
2022-10-30T19:05:50.273Z,94.09
2022-10-30T19:08:52.321Z,94.03
2022-10-30T19:11:56.854Z,94.04
2022-10-30T19:15:00.671Z,94.34
2022-10-30T19:18:03.325Z,93.32
2022-10-30T19:21:11.488Z,92.62
2022-10-30T19:24:18.036Z,91.80
2022-10-30T19:27:21.215Z,91.26
2022-10-30T19:30:24.424Z,91.14
2022-10-30T19:33:29.193Z,91.10
2022-10-30T19:36:34.599Z,91.16
2022-10-30T19:39:36.799Z,90.24
2022-10-30T19:42:40.721Z,90.46
2022-10-30T19:45:43.022Z,90.94
2022-10-30T19:48:57.307Z,90.64
2022-10-30T19:52:00.759Z,90.62
2022-10-30T19:55:03.803Z,90.72
2022-10-30T19:58:26.070Z,90.83
2022-10-30T20:01:28.516Z,91.12
2022-10-30T20:04:30.734Z,91.33
2022-10-30T20:07:32.913Z,91.08
2022-10-30T20:10:38.401Z,90.87
2022-10-30T20:13:41.053Z,90.92
2022-10-30T20:16:43.257Z,90.91
2022-10-30T20:19:46.487Z,90.74
2022-10-30T20:22:48.682Z,90.59
2022-10-30T20:25:53.062Z,90.92
2022-10-30T20:28:55.575Z,91.16
2022-10-30T20:31:58.014Z,91.29
2022-10-30T20:35:05.125Z,90.77
2022-10-30T20:38:17.839Z,90.67
2022-10-30T20:41:23.465Z,90.11
2022-10-30T20:44:26.648Z,90.52
2022-10-30T20:47:29.434Z,90.50
2022-10-30T20:50:34.257Z,91.03
2022-10-30T20:53:36.501Z,90.76
2022-10-30T20:56:38.754Z,90.35
2022-10-30T20:59:40.829Z,90.00
2022-10-30T21:02:43.646Z,89.73
2022-10-30T21:05:46.400Z,89.72
2022-10-30T21:08:48.553Z,89.90
2022-10-30T21:11:50.504Z,89.19
2022-10-30T21:14:53.143Z,90.14
2022-10-30T21:17:55.240Z,89.67
2022-10-30T21:21:05.829Z,90.37
2022-10-30T21:24:11.058Z,90.16
2022-10-30T21:27:13.137Z,90.10
2022-10-30T21:30:15.200Z,90.45
2022-10-30T21:33:17.759Z,90.67
2022-10-30T21:36:20.772Z,90.44
2022-10-30T21:39:24.025Z,90.59
2022-10-30T21:45:33.242Z,91.24
2022-10-30T21:48:35.952Z,90.70
2022-10-30T21:51:41.923Z,91.08
2022-10-30T21:54:45.861Z,90.60
2022-10-30T21:57:47.895Z,90.92
2022-10-30T22:00:51.329Z,90.54
2022-10-30T22:03:53.509Z,91.43
2022-10-30T22:06:55.523Z,90.98
2022-10-30T22:09:57.579Z,90.92
2022-10-30T22:12:59.896Z,90.57
2022-10-30T22:16:04.033Z,90.76
2022-10-30T22:19:10.146Z,91.39
2022-10-30T22:22:17.993Z,91.10
2022-10-30T22:25:21.060Z,91.39
2022-10-30T22:28:23.842Z,91.54
2022-10-30T22:31:28.967Z,91.41
2022-10-30T22:34:31.255Z,91.80
2022-10-30T22:37:36.996Z,91.63
2022-10-30T22:40:39.902Z,91.81
2022-10-30T22:43:44.314Z,91.66
2022-10-30T22:46:50.055Z,92.74
2022-10-30T22:49:52.743Z,91.80
2022-10-30T22:52:57.915Z,92.35
2022-10-30T22:56:01.076Z,92.52
2022-10-30T22:59:07.314Z,92.28
2022-10-30T23:02:10.082Z,92.45
2022-10-30T23:05:13.328Z,93.14
2022-10-30T23:08:16.493Z,92.30
2022-10-30T23:11:18.834Z,92.82
2022-10-30T23:14:21.195Z,91.63
2022-10-30T23:17:23.476Z,90.76
2022-10-30T23:20:25.849Z,90.94
2022-10-30T23:23:28.540Z,91.44
2022-10-30T23:26:35.101Z,91.35
2022-10-30T23:29:37.285Z,90.21
2022-10-30T23:32:39.323Z,91.17
2022-10-30T23:35:42.154Z,90.84
2022-10-30T23:38:44.295Z,91.02
2022-10-30T23:41:46.687Z,90.58
2022-10-30T23:44:49.258Z,90.58
2022-10-30T23:47:51.423Z,91.34
2022-10-30T23:50:54.773Z,91.05
2022-10-30T23:53:57.956Z,91.44
2022-10-30T23:57:01.252Z,92.66
